sensor_id;sensor_type;location;lat;lon;timestamp;temperature;humidity
11989;DHT22;6054;50.966;7.094;2023-02-28T00:01:40;8.50;39.60
11989;DHT22;6054;50.966;7.094;2023-02-28T00:04:07;8.50;39.70
11989;DHT22;6054;50.966;7.094;2023-02-28T00:06:34;8.50;39.90
11989;DHT22;6054;50.966;7.094;2023-02-28T00:09:01;8.50;39.90
11989;DHT22;6054;50.966;7.094;2023-02-28T00:11:28;8.60;39.90
11989;DHT22;6054;50.966;7.094;2023-02-28T00:13:56;8.50;39.60
11989;DHT22;6054;50.966;7.094;2023-02-28T00:16:23;8.40;39.60
11989;DHT22;6054;50.966;7.094;2023-02-28T00:18:50;8.40;39.70
11989;DHT22;6054;50.966;7.094;2023-02-28T00:21:18;8.40;39.70
11989;DHT22;6054;50.966;7.094;2023-02-28T00:23:44;8.40;40.00
11989;DHT22;6054;50.966;7.094;2023-02-28T00:26:11;8.40;39.70
11989;DHT22;6054;50.966;7.094;2023-02-28T00:28:38;8.40;39.60
11989;DHT22;6054;50.966;7.094;2023-02-28T00:31:06;8.40;39.70
11989;DHT22;6054;50.966;7.094;2023-02-28T00:33:33;8.40;39.80
11989;DHT22;6054;50.966;7.094;2023-02-28T00:36:04;8.40;39.90
11989;DHT22;6054;50.966;7.094;2023-02-28T00:38:31;8.40;40.20
11989;DHT22;6054;50.966;7.094;2023-02-28T00:40:58;8.40;39.80
11989;DHT22;6054;50.966;7.094;2023-02-28T00:43:30;8.40;39.70
11989;DHT22;6054;50.966;7.094;2023-02-28T00:45:57;8.30;40.10
11989;DHT22;6054;50.966;7.094;2023-02-28T00:48:25;8.30;39.60
11989;DHT22;6054;50.966;7.094;2023-02-28T00:50:52;8.30;39.70
11989;DHT22;6054;50.966;7.094;2023-02-28T00:53:18;8.30;39.80
11989;DHT22;6054;50.966;7.094;2023-02-28T00:55:45;8.50;39.90
11989;DHT22;6054;50.966;7.094;2023-02-28T00:58:12;8.30;39.90
11989;DHT22;6054;50.966;7.094;2023-02-28T01:00:39;8.30;39.80
11989;DHT22;6054;50.966;7.094;2023-02-28T01:03:05;8.30;39.80
11989;DHT22;6054;50.966;7.094;2023-02-28T01:05:34;8.30;39.70
11989;DHT22;6054;50.966;7.094;2023-02-28T01:08:00;8.30;39.80
11989;DHT22;6054;50.966;7.094;2023-02-28T01:10:28;8.30;39.90
11989;DHT22;6054;50.966;7.094;2023-02-28T01:12:56;8.30;39.90
11989;DHT22;6054;50.966;7.094;2023-02-28T01:15:23;8.30;40.10
11989;DHT22;6054;50.966;7.094;2023-02-28T01:17:50;8.30;40.00
11989;DHT22;6054;50.966;7.094;2023-02-28T01:20:17;8.30;40.00
11989;DHT22;6054;50.966;7.094;2023-02-28T01:22:45;8.30;40.10
11989;DHT22;6054;50.966;7.094;2023-02-28T01:25:12;8.30;40.00
11989;DHT22;6054;50.966;7.094;2023-02-28T01:27:39;8.30;40.10
11989;DHT22;6054;50.966;7.094;2023-02-28T01:30:07;8.20;40.10
11989;DHT22;6054;50.966;7.094;2023-02-28T01:32:34;8.30;40.40
11989;DHT22;6054;50.966;7.094;2023-02-28T01:35:01;8.20;40.00
11989;DHT22;6054;50.966;7.094;2023-02-28T01:37:27;8.20;40.00
11989;DHT22;6054;50.966;7.094;2023-02-28T01:39:56;8.20;40.10
11989;DHT22;6054;50.966;7.094;2023-02-28T01:42:22;8.20;40.20
11989;DHT22;6054;50.966;7.094;2023-02-28T01:44:59;8.40;40.20
11989;DHT22;6054;50.966;7.094;2023-02-28T01:47:30;8.20;40.50
11989;DHT22;6054;50.966;7.094;2023-02-28T01:49:59;8.10;40.40
11989;DHT22;6054;50.966;7.094;2023-02-28T01:52:27;8.10;40.40
11989;DHT22;6054;50.966;7.094;2023-02-28T01:54:57;8.10;40.30
11989;DHT22;6054;50.966;7.094;2023-02-28T01:57:29;8.10;40.40
11989;DHT22;6054;50.966;7.094;2023-02-28T02:00:05;8.10;40.40
11989;DHT22;6054;50.966;7.094;2023-02-28T02:02:35;8.10;40.50
11989;DHT22;6054;50.966;7.094;2023-02-28T02:05:05;8.10;40.40
11989;DHT22;6054;50.966;7.094;2023-02-28T02:07:34;8.10;40.50
11989;DHT22;6054;50.966;7.094;2023-02-28T02:10:06;8.10;40.40
11989;DHT22;6054;50.966;7.094;2023-02-28T02:12:53;8.10;40.20
11989;DHT22;6054;50.966;7.094;2023-02-28T02:15:26;8.10;40.60
11989;DHT22;6054;50.966;7.094;2023-02-28T02:17:58;8.20;40.70
11989;DHT22;6054;50.966;7.094;2023-02-28T02:24:03;8.00;40.50
11989;DHT22;6054;50.966;7.094;2023-02-28T02:26:59;7.90;40.50
11989;DHT22;6054;50.966;7.094;2023-02-28T02:30:10;7.90;40.60
11989;DHT22;6054;50.966;7.094;2023-02-28T02:32:53;7.90;40.60
11989;DHT22;6054;50.966;7.094;2023-02-28T02:35:28;7.80;40.60
11989;DHT22;6054;50.966;7.094;2023-02-28T02:38:03;7.90;40.50
11989;DHT22;6054;50.966;7.094;2023-02-28T02:40:35;7.80;40.70
11989;DHT22;6054;50.966;7.094;2023-02-28T02:43:07;7.80;40.60
11989;DHT22;6054;50.966;7.094;2023-02-28T02:45:41;7.80;40.50
11989;DHT22;6054;50.966;7.094;2023-02-28T02:48:11;7.80;40.30
11989;DHT22;6054;50.966;7.094;2023-02-28T02:50:44;7.80;40.60
11989;DHT22;6054;50.966;7.094;2023-02-28T02:53:13;7.80;40.50
11989;DHT22;6054;50.966;7.094;2023-02-28T02:55:45;7.80;40.60
11989;DHT22;6054;50.966;7.094;2023-02-28T02:58:19;7.80;40.60
11989;DHT22;6054;50.966;7.094;2023-02-28T03:00:52;7.80;40.40
11989;DHT22;6054;50.966;7.094;2023-02-28T03:03:19;7.80;40.40
11989;DHT22;6054;50.966;7.094;2023-02-28T03:05:57;7.80;40.30
11989;DHT22;6054;50.966;7.094;2023-02-28T03:08:23;7.80;40.10
11989;DHT22;6054;50.966;7.094;2023-02-28T03:10:51;7.80;39.20
11989;DHT22;6054;50.966;7.094;2023-02-28T03:13:48;7.80;40.70
11989;DHT22;6054;50.966;7.094;2023-02-28T03:16:33;7.80;40.00
11989;DHT22;6054;50.966;7.094;2023-02-28T03:19:31;7.80;39.90
11989;DHT22;6054;50.966;7.094;2023-02-28T03:22:14;7.80;39.80
11989;DHT22;6054;50.966;7.094;2023-02-28T03:24:45;7.70;39.60
11989;DHT22;6054;50.966;7.094;2023-02-28T03:27:17;7.80;39.50
11989;DHT22;6054;50.966;7.094;2023-02-28T03:29:49;7.70;39.40
11989;DHT22;6054;50.966;7.094;2023-02-28T03:32:21;7.90;39.40
11989;DHT22;6054;50.966;7.094;2023-02-28T03:34:55;7.70;39.20
11989;DHT22;6054;50.966;7.094;2023-02-28T03:37:27;7.70;39.20
11989;DHT22;6054;50.966;7.094;2023-02-28T03:39:58;7.70;39.10
11989;DHT22;6054;50.966;7.094;2023-02-28T03:42:28;7.70;39.20
11989;DHT22;6054;50.966;7.094;2023-02-28T03:44:58;7.70;39.10
11989;DHT22;6054;50.966;7.094;2023-02-28T03:47:29;7.70;39.10
11989;DHT22;6054;50.966;7.094;2023-02-28T03:50:03;7.70;39.10
11989;DHT22;6054;50.966;7.094;2023-02-28T03:52:36;7.70;39.00
11989;DHT22;6054;50.966;7.094;2023-02-28T03:55:10;7.70;39.00
11989;DHT22;6054;50.966;7.094;2023-02-28T03:57:41;7.60;39.50
11989;DHT22;6054;50.966;7.094;2023-02-28T04:00:13;7.60;38.90
11989;DHT22;6054;50.966;7.094;2023-02-28T04:02:41;7.60;38.80
11989;DHT22;6054;50.966;7.094;2023-02-28T04:05:08;7.60;38.00
11989;DHT22;6054;50.966;7.094;2023-02-28T04:07:36;7.60;37.80
11989;DHT22;6054;50.966;7.094;2023-02-28T04:10:04;7.60;38.60
11989;DHT22;6054;50.966;7.094;2023-02-28T04:12:31;7.60;38.80
11989;DHT22;6054;50.966;7.094;2023-02-28T04:14:58;7.60;38.30
11989;DHT22;6054;50.966;7.094;2023-02-28T04:17:24;7.60;37.70
11989;DHT22;6054;50.966;7.094;2023-02-28T04:19:51;7.60;38.30
11989;DHT22;6054;50.966;7.094;2023-02-28T04:22:19;7.50;38.50
11989;DHT22;6054;50.966;7.094;2023-02-28T04:24:47;7.60;38.50
11989;DHT22;6054;50.966;7.094;2023-02-28T04:27:14;7.60;37.90
11989;DHT22;6054;50.966;7.094;2023-02-28T04:29:41;7.60;38.80
11989;DHT22;6054;50.966;7.094;2023-02-28T04:32:10;7.80;39.00
11989;DHT22;6054;50.966;7.094;2023-02-28T04:34:37;7.60;38.80
11989;DHT22;6054;50.966;7.094;2023-02-28T04:37:05;7.50;38.80
11989;DHT22;6054;50.966;7.094;2023-02-28T04:39:35;7.50;39.20
11989;DHT22;6054;50.966;7.094;2023-02-28T04:42:03;7.50;39.80
11989;DHT22;6054;50.966;7.094;2023-02-28T04:44:30;7.50;39.00
11989;DHT22;6054;50.966;7.094;2023-02-28T04:46:57;7.50;38.00
11989;DHT22;6054;50.966;7.094;2023-02-28T04:49:24;7.50;38.70
11989;DHT22;6054;50.966;7.094;2023-02-28T04:51:50;7.50;38.50
11989;DHT22;6054;50.966;7.094;2023-02-28T04:54:18;7.50;38.90
11989;DHT22;6054;50.966;7.094;2023-02-28T04:56:45;7.50;39.00
11989;DHT22;6054;50.966;7.094;2023-02-28T04:59:15;7.50;39.00
11989;DHT22;6054;50.966;7.094;2023-02-28T05:01:46;7.50;39.00
11989;DHT22;6054;50.966;7.094;2023-02-28T05:04:12;7.50;39.40
11989;DHT22;6054;50.966;7.094;2023-02-28T05:06:39;7.50;39.10
11989;DHT22;6054;50.966;7.094;2023-02-28T05:09:06;7.50;38.80
11989;DHT22;6054;50.966;7.094;2023-02-28T05:11:34;7.50;38.80
11989;DHT22;6054;50.966;7.094;2023-02-28T05:14:01;7.50;38.90
11989;DHT22;6054;50.966;7.094;2023-02-28T05:16:30;7.50;39.00
11989;DHT22;6054;50.966;7.094;2023-02-28T05:18:56;7.50;38.80
11989;DHT22;6054;50.966;7.094;2023-02-28T05:21:26;7.50;38.30
11989;DHT22;6054;50.966;7.094;2023-02-28T05:23:54;7.60;39.20
11989;DHT22;6054;50.966;7.094;2023-02-28T05:26:21;7.40;39.00
11989;DHT22;6054;50.966;7.094;2023-02-28T05:28:48;7.50;38.30
11989;DHT22;6054;50.966;7.094;2023-02-28T05:31:15;7.40;38.30
11989;DHT22;6054;50.966;7.094;2023-02-28T05:33:43;7.40;38.30
11989;DHT22;6054;50.966;7.094;2023-02-28T05:36:10;7.40;38.30
11989;DHT22;6054;50.966;7.094;2023-02-28T05:38:37;7.40;38.10
11989;DHT22;6054;50.966;7.094;2023-02-28T05:41:07;7.40;38.50
11989;DHT22;6054;50.966;7.094;2023-02-28T05:43:35;7.40;38.30
11989;DHT22;6054;50.966;7.094;2023-02-28T05:46:03;7.40;38.60
11989;DHT22;6054;50.966;7.094;2023-02-28T05:48:30;7.40;38.70
11989;DHT22;6054;50.966;7.094;2023-02-28T05:50:58;7.40;38.40
11989;DHT22;6054;50.966;7.094;2023-02-28T05:53:25;7.40;38.40
11989;DHT22;6054;50.966;7.094;2023-02-28T05:55:53;7.40;38.50
11989;DHT22;6054;50.966;7.094;2023-02-28T05:58:19;7.40;37.60
11989;DHT22;6054;50.966;7.094;2023-02-28T06:00:46;7.50;38.20
11989;DHT22;6054;50.966;7.094;2023-02-28T06:03:13;7.40;38.30
11989;DHT22;6054;50.966;7.094;2023-02-28T06:05:40;7.40;38.20
11989;DHT22;6054;50.966;7.094;2023-02-28T06:08:08;7.70;37.70
11989;DHT22;6054;50.966;7.094;2023-02-28T06:10:35;7.70;37.80
11989;DHT22;6054;50.966;7.094;2023-02-28T06:13:02;7.50;38.70
11989;DHT22;6054;50.966;7.094;2023-02-28T06:15:30;7.50;38.10
11989;DHT22;6054;50.966;7.094;2023-02-28T06:17:57;7.50;37.90
11989;DHT22;6054;50.966;7.094;2023-02-28T06:20:24;7.50;37.90
11989;DHT22;6054;50.966;7.094;2023-02-28T06:22:54;7.50;38.40
11989;DHT22;6054;50.966;7.094;2023-02-28T06:25:22;7.50;38.00
11989;DHT22;6054;50.966;7.094;2023-02-28T06:27:49;7.70;37.10
11989;DHT22;6054;50.966;7.094;2023-02-28T06:30:16;7.50;37.70
11989;DHT22;6054;50.966;7.094;2023-02-28T06:32:43;7.50;37.20
11989;DHT22;6054;50.966;7.094;2023-02-28T06:35:10;7.70;37.50
11989;DHT22;6054;50.966;7.094;2023-02-28T06:37:37;7.50;38.00
11989;DHT22;6054;50.966;7.094;2023-02-28T06:40:06;7.70;38.30
11989;DHT22;6054;50.966;7.094;2023-02-28T06:42:35;7.50;38.50
11989;DHT22;6054;50.966;7.094;2023-02-28T06:45:02;7.50;38.10
11989;DHT22;6054;50.966;7.094;2023-02-28T06:47:34;7.50;38.50
11989;DHT22;6054;50.966;7.094;2023-02-28T06:50:01;7.50;38.30
11989;DHT22;6054;50.966;7.094;2023-02-28T06:52:28;7.50;38.30
11989;DHT22;6054;50.966;7.094;2023-02-28T06:54:55;7.50;38.10
11989;DHT22;6054;50.966;7.094;2023-02-28T06:57:27;7.80;38.20
11989;DHT22;6054;50.966;7.094;2023-02-28T06:59:57;7.50;38.10
11989;DHT22;6054;50.966;7.094;2023-02-28T07:02:24;7.50;38.10
11989;DHT22;6054;50.966;7.094;2023-02-28T07:04:51;7.50;37.50
11989;DHT22;6054;50.966;7.094;2023-02-28T07:07:18;7.60;37.20
11989;DHT22;6054;50.966;7.094;2023-02-28T07:09:45;7.60;37.00
11989;DHT22;6054;50.966;7.094;2023-02-28T07:12:11;7.60;37.30
11989;DHT22;6054;50.966;7.094;2023-02-28T07:14:38;7.60;36.90
11989;DHT22;6054;50.966;7.094;2023-02-28T07:17:08;7.70;36.60
11989;DHT22;6054;50.966;7.094;2023-02-28T07:19:36;7.70;37.40
11989;DHT22;6054;50.966;7.094;2023-02-28T07:22:03;7.70;36.60
11989;DHT22;6054;50.966;7.094;2023-02-28T07:24:30;7.70;36.50
11989;DHT22;6054;50.966;7.094;2023-02-28T07:26:56;7.80;36.30
11989;DHT22;6054;50.966;7.094;2023-02-28T07:29:24;7.80;36.50
11989;DHT22;6054;50.966;7.094;2023-02-28T07:31:51;7.80;36.70
11989;DHT22;6054;50.966;7.094;2023-02-28T07:34:20;7.80;36.30
11989;DHT22;6054;50.966;7.094;2023-02-28T07:36:46;7.90;36.10
11989;DHT22;6054;50.966;7.094;2023-02-28T07:39:13;7.80;36.00
11989;DHT22;6054;50.966;7.094;2023-02-28T07:41:40;7.90;36.10
11989;DHT22;6054;50.966;7.094;2023-02-28T07:44:09;7.90;36.20
11989;DHT22;6054;50.966;7.094;2023-02-28T07:46:36;8.00;35.50
11989;DHT22;6054;50.966;7.094;2023-02-28T07:49:03;8.00;35.60
11989;DHT22;6054;50.966;7.094;2023-02-28T07:54:00;8.00;35.50
11989;DHT22;6054;50.966;7.094;2023-02-28T07:56:27;8.30;35.50
11989;DHT22;6054;50.966;7.094;2023-02-28T07:58:54;8.10;34.90
11989;DHT22;6054;50.966;7.094;2023-02-28T08:01:20;8.10;35.10
11989;DHT22;6054;50.966;7.094;2023-02-28T08:03:47;8.10;34.80
11989;DHT22;6054;50.966;7.094;2023-02-28T08:06:19;8.10;34.40
11989;DHT22;6054;50.966;7.094;2023-02-28T08:08:47;8.40;34.70
11989;DHT22;6054;50.966;7.094;2023-02-28T08:11:16;8.20;34.30
11989;DHT22;6054;50.966;7.094;2023-02-28T08:13:43;8.20;34.30
11989;DHT22;6054;50.966;7.094;2023-02-28T08:16:10;8.30;34.20
11989;DHT22;6054;50.966;7.094;2023-02-28T08:18:39;8.30;33.70
11989;DHT22;6054;50.966;7.094;2023-02-28T08:21:07;8.40;34.00
11989;DHT22;6054;50.966;7.094;2023-02-28T08:23:33;8.40;33.80
11989;DHT22;6054;50.966;7.094;2023-02-28T08:26:00;8.40;33.80
11989;DHT22;6054;50.966;7.094;2023-02-28T08:28:29;8.50;34.10
11989;DHT22;6054;50.966;7.094;2023-02-28T08:30:55;8.60;33.90
11989;DHT22;6054;50.966;7.094;2023-02-28T08:33:22;8.60;33.70
11989;DHT22;6054;50.966;7.094;2023-02-28T08:35:52;8.70;33.80
11989;DHT22;6054;50.966;7.094;2023-02-28T08:38:19;8.70;34.10
11989;DHT22;6054;50.966;7.094;2023-02-28T08:40:45;9.00;33.50
11989;DHT22;6054;50.966;7.094;2023-02-28T08:43:12;9.00;33.10
11989;DHT22;6054;50.966;7.094;2023-02-28T08:45:40;8.80;32.80
11989;DHT22;6054;50.966;7.094;2023-02-28T08:48:07;8.90;33.00
11989;DHT22;6054;50.966;7.094;2023-02-28T08:50:34;9.00;31.70
11989;DHT22;6054;50.966;7.094;2023-02-28T08:53:01;9.00;31.50
11989;DHT22;6054;50.966;7.094;2023-02-28T08:55:27;9.00;31.70
11989;DHT22;6054;50.966;7.094;2023-02-28T08:57:54;9.10;31.70
11989;DHT22;6054;50.966;7.094;2023-02-28T09:00:22;9.20;32.10
11989;DHT22;6054;50.966;7.094;2023-02-28T09:02:50;9.20;32.00
11989;DHT22;6054;50.966;7.094;2023-02-28T09:05:17;9.30;31.30
11989;DHT22;6054;50.966;7.094;2023-02-28T09:07:43;9.30;31.30
11989;DHT22;6054;50.966;7.094;2023-02-28T09:10:10;9.40;31.00
11989;DHT22;6054;50.966;7.094;2023-02-28T09:12:37;9.40;30.90
11989;DHT22;6054;50.966;7.094;2023-02-28T09:15:05;9.50;31.00
11989;DHT22;6054;50.966;7.094;2023-02-28T09:17:32;9.50;30.70
11989;DHT22;6054;50.966;7.094;2023-02-28T09:20:00;9.50;30.00
11989;DHT22;6054;50.966;7.094;2023-02-28T09:22:27;9.50;30.00
11989;DHT22;6054;50.966;7.094;2023-02-28T09:24:54;9.50;30.10
11989;DHT22;6054;50.966;7.094;2023-02-28T09:27:21;9.50;29.70
11989;DHT22;6054;50.966;7.094;2023-02-28T09:29:48;9.60;29.90
11989;DHT22;6054;50.966;7.094;2023-02-28T09:32:14;9.70;29.20
11989;DHT22;6054;50.966;7.094;2023-02-28T09:34:43;9.70;29.10
11989;DHT22;6054;50.966;7.094;2023-02-28T09:37:11;9.70;29.00
11989;DHT22;6054;50.966;7.094;2023-02-28T09:39:38;9.70;28.90
11989;DHT22;6054;50.966;7.094;2023-02-28T09:42:05;9.70;28.70
11989;DHT22;6054;50.966;7.094;2023-02-28T09:44:37;9.70;29.20
11989;DHT22;6054;50.966;7.094;2023-02-28T09:47:10;9.80;29.20
11989;DHT22;6054;50.966;7.094;2023-02-28T09:49:41;9.80;29.70
11989;DHT22;6054;50.966;7.094;2023-02-28T09:52:13;9.90;29.50
11989;DHT22;6054;50.966;7.094;2023-02-28T09:54:41;10.20;28.70
11989;DHT22;6054;50.966;7.094;2023-02-28T09:57:15;10.00;28.30
11989;DHT22;6054;50.966;7.094;2023-02-28T09:59:54;10.00;28.50
11989;DHT22;6054;50.966;7.094;2023-02-28T10:02:41;10.00;28.30
11989;DHT22;6054;50.966;7.094;2023-02-28T10:05:13;10.10;28.30
11989;DHT22;6054;50.966;7.094;2023-02-28T10:07:53;10.20;28.10
11989;DHT22;6054;50.966;7.094;2023-02-28T10:10:25;10.20;28.30
11989;DHT22;6054;50.966;7.094;2023-02-28T10:12:54;10.30;28.20
11989;DHT22;6054;50.966;7.094;2023-02-28T10:15:24;10.40;27.70
11989;DHT22;6054;50.966;7.094;2023-02-28T10:17:56;10.40;27.90
11989;DHT22;6054;50.966;7.094;2023-02-28T10:20:25;10.50;28.10
11989;DHT22;6054;50.966;7.094;2023-02-28T10:23:02;10.50;28.00
11989;DHT22;6054;50.966;7.094;2023-02-28T10:25:34;10.50;27.70
11989;DHT22;6054;50.966;7.094;2023-02-28T10:28:05;10.50;27.80
11989;DHT22;6054;50.966;7.094;2023-02-28T10:30:38;10.60;27.50
11989;DHT22;6054;50.966;7.094;2023-02-28T10:33:08;10.60;27.80
11989;DHT22;6054;50.966;7.094;2023-02-28T10:35:43;10.60;27.80
11989;DHT22;6054;50.966;7.094;2023-02-28T10:38:16;10.70;27.60
11989;DHT22;6054;50.966;7.094;2023-02-28T10:40:43;10.70;27.90
11989;DHT22;6054;50.966;7.094;2023-02-28T10:43:19;10.90;27.70
11989;DHT22;6054;50.966;7.094;2023-02-28T10:45:55;10.90;28.10
11989;DHT22;6054;50.966;7.094;2023-02-28T10:48:34;11.00;28.00
11989;DHT22;6054;50.966;7.094;2023-02-28T10:51:03;11.10;27.90
11989;DHT22;6054;50.966;7.094;2023-02-28T10:53:38;11.20;27.50
11989;DHT22;6054;50.966;7.094;2023-02-28T10:56:15;11.20;27.70
11989;DHT22;6054;50.966;7.094;2023-02-28T10:58:48;11.20;27.30
11989;DHT22;6054;50.966;7.094;2023-02-28T11:01:17;11.20;27.90
11989;DHT22;6054;50.966;7.094;2023-02-28T11:03:45;11.30;28.30
11989;DHT22;6054;50.966;7.094;2023-02-28T11:06:18;11.40;28.60
11989;DHT22;6054;50.966;7.094;2023-02-28T11:08:49;11.50;28.40
11989;DHT22;6054;50.966;7.094;2023-02-28T11:11:17;11.60;27.90
11989;DHT22;6054;50.966;7.094;2023-02-28T11:13:46;11.70;28.00
11989;DHT22;6054;50.966;7.094;2023-02-28T11:16:15;11.80;27.90
11989;DHT22;6054;50.966;7.094;2023-02-28T11:18:46;11.80;27.90
11989;DHT22;6054;50.966;7.094;2023-02-28T11:21:19;12.10;27.70
11989;DHT22;6054;50.966;7.094;2023-02-28T11:23:50;12.00;28.20
11989;DHT22;6054;50.966;7.094;2023-02-28T11:26:36;12.00;28.20
11989;DHT22;6054;50.966;7.094;2023-02-28T11:29:10;12.10;27.20
11989;DHT22;6054;50.966;7.094;2023-02-28T11:31:37;12.00;27.00
11989;DHT22;6054;50.966;7.094;2023-02-28T11:34:24;12.10;26.80
11989;DHT22;6054;50.966;7.094;2023-02-28T11:36:54;12.20;27.50
11989;DHT22;6054;50.966;7.094;2023-02-28T11:39:24;12.30;27.60
11989;DHT22;6054;50.966;7.094;2023-02-28T11:42:04;12.40;27.50
11989;DHT22;6054;50.966;7.094;2023-02-28T11:44:47;12.60;27.80
11989;DHT22;6054;50.966;7.094;2023-02-28T11:47:27;12.50;27.40
11989;DHT22;6054;50.966;7.094;2023-02-28T11:50:14;12.60;26.90
11989;DHT22;6054;50.966;7.094;2023-02-28T11:52:48;12.80;26.50
11989;DHT22;6054;50.966;7.094;2023-02-28T11:55:23;12.60;26.90
11989;DHT22;6054;50.966;7.094;2023-02-28T11:58:13;12.60;27.00
11989;DHT22;6054;50.966;7.094;2023-02-28T12:00:56;12.70;27.40
11989;DHT22;6054;50.966;7.094;2023-02-28T12:03:33;12.80;27.10
11989;DHT22;6054;50.966;7.094;2023-02-28T12:06:13;12.80;26.70
11989;DHT22;6054;50.966;7.094;2023-02-28T12:08:51;12.90;26.60
11989;DHT22;6054;50.966;7.094;2023-02-28T12:11:30;12.90;26.60
11989;DHT22;6054;50.966;7.094;2023-02-28T12:14:14;12.90;26.60
11989;DHT22;6054;50.966;7.094;2023-02-28T12:16:54;12.90;26.60
11989;DHT22;6054;50.966;7.094;2023-02-28T12:19:28;12.90;26.50
11989;DHT22;6054;50.966;7.094;2023-02-28T12:22:12;12.90;26.10
11989;DHT22;6054;50.966;7.094;2023-02-28T12:24:55;12.80;26.40
11989;DHT22;6054;50.966;7.094;2023-02-28T12:27:30;13.10;26.70
11989;DHT22;6054;50.966;7.094;2023-02-28T12:30:02;12.80;26.30
11989;DHT22;6054;50.966;7.094;2023-02-28T12:32:34;12.90;26.60
11989;DHT22;6054;50.966;7.094;2023-02-28T12:35:06;12.90;26.50
11989;DHT22;6054;50.966;7.094;2023-02-28T12:37:40;12.90;26.40
11989;DHT22;6054;50.966;7.094;2023-02-28T12:40:12;12.90;26.60
11989;DHT22;6054;50.966;7.094;2023-02-28T12:42:43;12.90;26.30
11989;DHT22;6054;50.966;7.094;2023-02-28T12:45:17;12.90;26.30
11989;DHT22;6054;50.966;7.094;2023-02-28T12:47:46;12.80;26.40
11989;DHT22;6054;50.966;7.094;2023-02-28T12:50:15;13.10;26.80
11989;DHT22;6054;50.966;7.094;2023-02-28T12:52:55;13.00;26.50
11989;DHT22;6054;50.966;7.094;2023-02-28T12:55:31;13.20;26.70
11989;DHT22;6054;50.966;7.094;2023-02-28T12:58:10;13.40;26.80
11989;DHT22;6054;50.966;7.094;2023-02-28T13:01:02;13.90;26.90
11989;DHT22;6054;50.966;7.094;2023-02-28T13:03:49;14.10;27.60
11989;DHT22;6054;50.966;7.094;2023-02-28T13:06:32;14.20;26.30
11989;DHT22;6054;50.966;7.094;2023-02-28T13:09:10;14.40;25.90
11989;DHT22;6054;50.966;7.094;2023-02-28T13:11:43;14.50;25.90
11989;DHT22;6054;50.966;7.094;2023-02-28T13:14:25;14.50;25.70
11989;DHT22;6054;50.966;7.094;2023-02-28T13:16:58;14.60;25.50
11989;DHT22;6054;50.966;7.094;2023-02-28T13:19:27;14.60;25.10
11989;DHT22;6054;50.966;7.094;2023-02-28T13:21:55;14.70;25.20
11989;DHT22;6054;50.966;7.094;2023-02-28T13:24:45;14.70;24.90
11989;DHT22;6054;50.966;7.094;2023-02-28T13:27:23;14.70;24.90
11989;DHT22;6054;50.966;7.094;2023-02-28T13:29:52;14.60;25.00
11989;DHT22;6054;50.966;7.094;2023-02-28T13:32:32;14.60;25.00
11989;DHT22;6054;50.966;7.094;2023-02-28T13:35:46;14.60;25.00
11989;DHT22;6054;50.966;7.094;2023-02-28T13:38:37;14.60;25.10
11989;DHT22;6054;50.966;7.094;2023-02-28T13:41:45;14.60;25.00
11989;DHT22;6054;50.966;7.094;2023-02-28T13:44:13;14.80;25.30
11989;DHT22;6054;50.966;7.094;2023-02-28T13:50:22;15.20;25.50
11989;DHT22;6054;50.966;7.094;2023-02-28T13:53:03;15.40;25.50
11989;DHT22;6054;50.966;7.094;2023-02-28T13:55:37;15.50;25.00
11989;DHT22;6054;50.966;7.094;2023-02-28T13:58:15;15.60;24.90
11989;DHT22;6054;50.966;7.094;2023-02-28T14:00:54;15.80;24.70
11989;DHT22;6054;50.966;7.094;2023-02-28T14:03:35;16.00;25.10
11989;DHT22;6054;50.966;7.094;2023-02-28T14:06:18;16.20;25.50
11989;DHT22;6054;50.966;7.094;2023-02-28T14:08:54;16.50;24.80
11989;DHT22;6054;50.966;7.094;2023-02-28T14:11:28;16.60;24.40
11989;DHT22;6054;50.966;7.094;2023-02-28T14:13:55;16.60;24.00
11989;DHT22;6054;50.966;7.094;2023-02-28T14:16:24;16.60;23.80
11989;DHT22;6054;50.966;7.094;2023-02-28T14:18:56;16.60;24.20
11989;DHT22;6054;50.966;7.094;2023-02-28T14:21:26;16.50;24.20
11989;DHT22;6054;50.966;7.094;2023-02-28T14:24:24;16.50;24.10
11989;DHT22;6054;50.966;7.094;2023-02-28T14:27:05;16.50;24.00
11989;DHT22;6054;50.966;7.094;2023-02-28T14:29:56;16.40;23.90
11989;DHT22;6054;50.966;7.094;2023-02-28T14:32:30;16.20;23.70
11989;DHT22;6054;50.966;7.094;2023-02-28T14:35:04;16.00;23.70
11989;DHT22;6054;50.966;7.094;2023-02-28T14:37:38;15.90;23.60
11989;DHT22;6054;50.966;7.094;2023-02-28T14:40:15;15.80;23.60
11989;DHT22;6054;50.966;7.094;2023-02-28T14:42:48;15.70;23.50
11989;DHT22;6054;50.966;7.094;2023-02-28T14:45:19;15.70;23.60
11989;DHT22;6054;50.966;7.094;2023-02-28T14:47:47;15.70;23.70
11989;DHT22;6054;50.966;7.094;2023-02-28T14:50:19;15.70;24.00
11989;DHT22;6054;50.966;7.094;2023-02-28T14:52:46;15.60;23.60
11989;DHT22;6054;50.966;7.094;2023-02-28T14:55:17;15.50;23.50
11989;DHT22;6054;50.966;7.094;2023-02-28T14:57:51;15.40;23.60
11989;DHT22;6054;50.966;7.094;2023-02-28T15:00:23;15.30;23.70
11989;DHT22;6054;50.966;7.094;2023-02-28T15:02:50;15.20;23.80
11989;DHT22;6054;50.966;7.094;2023-02-28T15:05:27;15.30;23.90
11989;DHT22;6054;50.966;7.094;2023-02-28T15:08:03;15.40;24.20
11989;DHT22;6054;50.966;7.094;2023-02-28T15:10:32;15.40;24.30
11989;DHT22;6054;50.966;7.094;2023-02-28T15:13:00;15.50;24.40
11989;DHT22;6054;50.966;7.094;2023-02-28T15:15:40;15.60;24.50
11989;DHT22;6054;50.966;7.094;2023-02-28T15:18:15;15.60;24.70
11989;DHT22;6054;50.966;7.094;2023-02-28T15:20:44;15.70;24.90
11989;DHT22;6054;50.966;7.094;2023-02-28T15:23:11;15.80;25.30
11989;DHT22;6054;50.966;7.094;2023-02-28T15:25:40;15.90;24.50
11989;DHT22;6054;50.966;7.094;2023-02-28T15:28:12;15.90;24.50
11989;DHT22;6054;50.966;7.094;2023-02-28T15:30:51;15.90;24.40
11989;DHT22;6054;50.966;7.094;2023-02-28T15:33:20;16.00;24.60
11989;DHT22;6054;50.966;7.094;2023-02-28T15:35:48;16.00;24.20
11989;DHT22;6054;50.966;7.094;2023-02-28T15:38:17;15.90;24.50
11989;DHT22;6054;50.966;7.094;2023-02-28T15:40:49;15.80;24.20
11989;DHT22;6054;50.966;7.094;2023-02-28T15:43:23;15.70;24.10
11989;DHT22;6054;50.966;7.094;2023-02-28T15:45:51;15.60;24.10
11989;DHT22;6054;50.966;7.094;2023-02-28T15:48:21;15.50;24.30
11989;DHT22;6054;50.966;7.094;2023-02-28T15:50:50;15.40;24.20
11989;DHT22;6054;50.966;7.094;2023-02-28T15:53:21;15.40;24.50
11989;DHT22;6054;50.966;7.094;2023-02-28T15:55:55;15.20;24.50
11989;DHT22;6054;50.966;7.094;2023-02-28T15:58:24;15.10;24.50
11989;DHT22;6054;50.966;7.094;2023-02-28T16:01:20;15.10;24.70
11989;DHT22;6054;50.966;7.094;2023-02-28T16:03:49;15.00;24.80
11989;DHT22;6054;50.966;7.094;2023-02-28T16:06:30;15.10;24.90
11989;DHT22;6054;50.966;7.094;2023-02-28T16:08:58;14.90;24.80
11989;DHT22;6054;50.966;7.094;2023-02-28T16:11:26;14.80;24.50
11989;DHT22;6054;50.966;7.094;2023-02-28T16:13:53;14.80;24.50
11989;DHT22;6054;50.966;7.094;2023-02-28T16:16:22;14.80;24.80
11989;DHT22;6054;50.966;7.094;2023-02-28T16:18:49;15.00;25.30
11989;DHT22;6054;50.966;7.094;2023-02-28T16:21:16;14.90;25.30
11989;DHT22;6054;50.966;7.094;2023-02-28T16:23:43;14.70;24.90
11989;DHT22;6054;50.966;7.094;2023-02-28T16:26:18;14.70;25.10
11989;DHT22;6054;50.966;7.094;2023-02-28T16:28:47;14.80;25.40
11989;DHT22;6054;50.966;7.094;2023-02-28T16:31:14;14.80;25.40